createdAt,value
2022-08-17T00:02:25.455Z,96938.81
2022-08-17T00:04:54.226Z,96951.50
2022-08-17T00:07:21.091Z,96947.25
2022-08-17T00:09:47.859Z,96950.50
2022-08-17T00:12:43.284Z,96950.38
2022-08-17T00:15:01.405Z,96955.44
2022-08-17T00:17:30.678Z,96957.38
2022-08-17T00:19:57.432Z,96959.81
2022-08-17T00:22:34.430Z,96955.88
2022-08-17T00:25:07.355Z,96959.09
2022-08-17T00:27:34.731Z,96950.78
2022-08-17T00:30:01.517Z,96945.44
2022-08-17T00:33:15.280Z,96952.00
2022-08-17T00:35:18.418Z,96946.47
2022-08-17T00:37:45.341Z,96950.53
2022-08-17T00:40:14.678Z,96949.13
2022-08-17T00:42:42.782Z,96946.19
2022-08-17T00:45:12.333Z,96956.81
2022-08-17T00:47:39.435Z,96955.13
2022-08-17T00:50:09.112Z,96956.41
2022-08-17T00:52:41.456Z,96954.00
2022-08-17T00:55:08.923Z,96960.91
2022-08-17T00:57:42.415Z,96965.13
2022-08-17T01:00:17.282Z,96965.50
2022-08-17T01:02:47.232Z,96972.91
2022-08-17T01:05:26.428Z,96974.16
2022-08-17T01:07:55.349Z,96972.50
2022-08-17T01:10:59.609Z,96970.53
2022-08-17T01:13:25.936Z,96966.72
2022-08-17T01:16:02.163Z,96974.75
2022-08-17T01:18:29.148Z,96972.84
2022-08-17T01:20:59.023Z,96970.13
2022-08-17T01:23:28.940Z,96970.84
2022-08-17T01:26:01.495Z,96972.28
2022-08-17T01:28:55.058Z,96964.38
2022-08-17T01:31:21.987Z,96968.50
2022-08-17T01:33:48.745Z,96972.22
2022-08-17T01:36:15.516Z,96969.72
2022-08-17T01:38:42.290Z,96973.72
2022-08-17T01:41:13.697Z,96964.69
2022-08-17T01:43:54.916Z,96968.56
2022-08-17T01:46:25.004Z,96966.78
2022-08-17T01:48:51.884Z,96966.19
2022-08-17T01:51:20.016Z,96958.59
2022-08-17T01:53:53.802Z,96958.69
2022-08-17T01:56:23.501Z,96961.03
2022-08-17T01:58:50.583Z,96966.88
2022-08-17T02:01:20.219Z,96966.03
2022-08-17T02:03:59.680Z,96969.34
2022-08-17T02:06:52.675Z,96959.66
2022-08-17T02:09:29.649Z,96965.00
2022-08-17T02:11:59.307Z,96962.09
2022-08-17T02:14:26.967Z,96958.47
2022-08-17T02:16:54.353Z,96953.03
2022-08-17T02:19:22.052Z,96961.16
2022-08-17T02:21:51.588Z,96955.22
2022-08-17T02:25:01.043Z,96946.47
2022-08-17T02:27:19.746Z,96960.94
2022-08-17T02:29:46.516Z,96956.13
2022-08-17T02:32:25.289Z,96959.41
2022-08-17T02:34:55.464Z,96969.16
2022-08-17T02:37:22.301Z,96976.91
2022-08-17T02:39:49.013Z,96977.06
2022-08-17T02:42:15.807Z,96974.25
2022-08-17T02:44:42.664Z,96978.63
2022-08-17T02:47:11.160Z,96977.25
2022-08-17T02:49:38.238Z,96994.75
2022-08-17T02:52:07.556Z,96988.22
2022-08-17T02:54:41.221Z,96986.75
2022-08-17T02:57:10.236Z,96989.56
2022-08-17T02:59:38.346Z,96992.72
2022-08-17T03:02:08.248Z,96983.88
2022-08-17T03:04:35.488Z,96982.88
2022-08-17T03:07:05.459Z,96979.88
2022-08-17T03:09:32.342Z,96974.63
2022-08-17T03:12:12.492Z,96973.31
2022-08-17T03:14:43.762Z,96975.38
2022-08-17T03:17:11.274Z,96983.13
2022-08-17T03:19:44.365Z,96987.50
2022-08-17T03:22:36.246Z,96984.44
2022-08-17T03:24:58.101Z,96997.53
2022-08-17T03:27:24.793Z,96993.81
2022-08-17T03:29:55.292Z,97004.00
2022-08-17T03:32:22.111Z,97000.63
2022-08-17T03:34:51.791Z,96996.25
2022-08-17T03:37:18.648Z,97002.56
2022-08-17T03:39:45.383Z,96999.75
2022-08-17T03:42:31.835Z,97010.91
2022-08-17T03:45:00.401Z,96999.66
2022-08-17T03:47:45.779Z,97008.00
2022-08-17T03:50:32.817Z,97016.22
2022-08-17T03:53:18.275Z,97012.22
2022-08-17T03:56:03.373Z,97017.69
2022-08-17T03:58:30.167Z,97021.22
2022-08-17T04:00:57.047Z,97027.53
2022-08-17T04:03:23.860Z,97023.50
2022-08-17T04:05:50.644Z,97025.94
2022-08-17T04:08:17.352Z,97024.97
2022-08-17T04:10:44.883Z,97028.59
2022-08-17T04:13:12.971Z,97031.91
2022-08-17T04:15:40.102Z,97035.53
2022-08-17T04:18:07.741Z,97035.88
2022-08-17T04:20:37.818Z,97037.59
2022-08-17T04:23:10.487Z,97034.69
2022-08-17T04:25:41.733Z,97029.31
2022-08-17T04:28:15.521Z,97041.41
2022-08-17T04:30:45.394Z,97031.84
2022-08-17T04:33:18.097Z,97037.06
2022-08-17T04:35:49.032Z,97038.34
2022-08-17T04:38:18.387Z,97028.50
2022-08-17T04:41:03.571Z,97036.81
2022-08-17T04:43:32.383Z,97033.25
2022-08-17T04:46:02.363Z,97027.78
2022-08-17T04:48:36.381Z,97024.47
2022-08-17T04:51:26.343Z,97033.50
2022-08-17T04:53:57.002Z,97029.56
2022-08-17T04:56:26.123Z,97032.13
2022-08-17T04:58:57.096Z,97029.78
2022-08-17T05:01:28.215Z,97034.94
2022-08-17T05:03:59.059Z,97029.66
2022-08-17T05:06:27.605Z,97034.03
2022-08-17T05:08:55.175Z,97039.81
2022-08-17T05:11:23.331Z,97037.00
2022-08-17T05:13:50.445Z,97043.34
2022-08-17T05:16:18.151Z,97041.28
2022-08-17T05:18:45.053Z,97044.00
2022-08-17T05:21:11.871Z,97045.34
2022-08-17T05:23:43.087Z,97045.75
2022-08-17T05:26:22.562Z,97038.19
2022-08-17T05:28:59.557Z,97049.22
2022-08-17T05:31:29.012Z,97041.59
2022-08-17T05:33:56.318Z,97048.28
2022-08-17T05:36:41.963Z,97038.91
2022-08-17T05:39:10.766Z,97041.50
2022-08-17T05:41:44.175Z,97044.75
2022-08-17T05:44:10.951Z,97050.06
2022-08-17T05:46:42.009Z,97048.06
2022-08-17T05:49:08.942Z,97042.19
2022-08-17T05:51:50.028Z,97052.66
2022-08-17T05:54:19.591Z,97048.59
2022-08-17T05:57:06.988Z,97051.41
2022-08-17T06:00:01.033Z,97050.69
2022-08-17T06:02:48.026Z,97046.63
2022-08-17T06:05:15.231Z,97053.94
2022-08-17T06:08:02.592Z,97051.16
2022-08-17T06:10:38.293Z,97053.84
2022-08-17T06:13:59.336Z,97042.03
2022-08-17T06:16:34.275Z,97051.06
2022-08-17T06:19:06.430Z,97061.34
2022-08-17T06:21:39.715Z,97052.75
2022-08-17T06:24:20.966Z,97059.53
2022-08-17T06:26:48.571Z,97053.75
2022-08-17T06:29:35.140Z,97051.09
2022-08-17T06:32:03.344Z,97043.19
2022-08-17T06:34:30.126Z,97040.94
2022-08-17T06:37:25.239Z,97037.41
2022-08-17T06:40:01.169Z,97044.75
2022-08-17T06:43:06.577Z,97044.88
2022-08-17T06:45:49.378Z,97043.56
2022-08-17T06:48:25.503Z,97036.66
2022-08-17T06:51:00.078Z,97045.53
2022-08-17T06:53:42.481Z,97045.50
2022-08-17T06:56:11.884Z,97056.34
2022-08-17T06:58:41.338Z,97050.41
2022-08-17T07:01:23.324Z,97052.75
2022-08-17T07:04:11.916Z,97052.56
2022-08-17T07:06:54.643Z,97052.94
2022-08-17T07:09:51.444Z,97052.31
2022-08-17T07:12:22.837Z,97057.63
2022-08-17T07:14:54.477Z,97052.69
2022-08-17T07:17:47.045Z,97055.38
2022-08-17T07:20:15.171Z,97058.25
2022-08-17T07:22:51.923Z,97057.22
2022-08-17T07:25:26.451Z,97058.69
2022-08-17T07:27:59.886Z,97060.31
2022-08-17T07:30:51.284Z,97064.34
2022-08-17T07:33:24.430Z,97066.28
2022-08-17T07:35:51.348Z,97062.97
2022-08-17T07:38:33.315Z,97070.06
2022-08-17T07:41:05.398Z,97064.88
2022-08-17T07:43:40.978Z,97058.59
2022-08-17T07:46:47.617Z,97059.63
2022-08-17T07:49:14.174Z,97052.34
2022-08-17T07:51:43.987Z,97055.38
2022-08-17T07:54:22.701Z,97044.91
2022-08-17T07:57:03.468Z,97052.69
2022-08-17T07:59:35.586Z,97066.09
2022-08-17T08:02:16.347Z,97048.03
2022-08-17T08:05:00.488Z,97042.94
2022-08-17T08:07:38.327Z,97046.59
2022-08-17T08:10:10.834Z,97044.97
2022-08-17T08:12:39.652Z,97040.66
2022-08-17T08:15:17.806Z,97040.09
2022-08-17T08:17:55.510Z,97040.44
2022-08-17T08:20:52.910Z,97043.16
2022-08-17T08:23:29.634Z,97042.53
2022-08-17T08:26:31.778Z,97043.34
2022-08-17T08:29:08.403Z,97038.97
2022-08-17T08:32:02.727Z,97038.16
2022-08-17T08:35:01.484Z,97042.22
2022-08-17T08:37:47.295Z,97038.22
2022-08-17T08:40:42.987Z,97026.59
2022-08-17T08:44:06.526Z,97036.38
2022-08-17T08:46:54.143Z,97040.41
2022-08-17T08:50:06.113Z,97038.88
2022-08-17T08:52:40.049Z,97035.06
2022-08-17T08:55:34.798Z,97035.38
2022-08-17T08:58:31.563Z,97034.50
2022-08-17T09:00:58.831Z,97029.63
2022-08-17T09:03:52.357Z,97019.84
2022-08-17T09:06:47.825Z,97029.94
2022-08-17T09:09:39.053Z,97018.09
2022-08-17T09:12:16.884Z,97021.69
2022-08-17T09:14:57.565Z,97021.25
2022-08-17T09:17:33.409Z,97021.47
2022-08-17T09:20:27.603Z,97026.81
2022-08-17T09:23:07.160Z,97022.28
2022-08-17T09:25:45.502Z,97013.59
2022-08-17T09:28:20.420Z,97015.03
2022-08-17T09:30:53.661Z,97019.78
2022-08-17T09:33:26.885Z,97023.63
2022-08-17T09:36:16.483Z,97023.09
2022-08-17T09:38:49.314Z,97023.44
2022-08-17T09:41:53.309Z,97028.94
2022-08-17T09:44:32.191Z,97028.38
2022-08-17T09:47:46.805Z,97025.91
2022-08-17T09:50:20.176Z,97022.97
2022-08-17T09:53:08.008Z,97025.81
2022-08-17T09:55:59.282Z,97025.75
2022-08-17T09:58:38.997Z,97034.91
2022-08-17T10:01:16.678Z,97030.84
2022-08-17T10:03:51.049Z,97020.19
2022-08-17T10:06:33.877Z,97020.84
2022-08-17T10:09:10.464Z,97012.25
2022-08-17T10:12:00.530Z,97019.94
2022-08-17T10:14:44.439Z,97015.31
2022-08-17T10:17:21.634Z,97016.47
2022-08-17T10:20:01.183Z,97009.13
2022-08-17T10:23:21.083Z,97009.56
2022-08-17T10:26:14.558Z,97003.38
2022-08-17T10:28:53.263Z,97011.91
2022-08-17T10:31:36.565Z,97010.94
2022-08-17T10:34:27.301Z,97012.22
2022-08-17T10:37:19.825Z,97008.34
2022-08-17T10:40:32.569Z,97002.28
2022-08-17T10:42:59.356Z,97003.69
2022-08-17T10:45:46.099Z,97007.03
2022-08-17T10:48:14.001Z,97001.63
2022-08-17T10:50:49.702Z,97009.78
2022-08-17T10:53:31.913Z,97003.03
2022-08-17T10:56:13.954Z,97010.53
2022-08-17T10:59:07.246Z,96999.22
2022-08-17T11:01:42.173Z,97001.09
2022-08-17T11:04:45.698Z,97009.47
2022-08-17T11:07:19.159Z,97008.03
2022-08-17T11:10:08.617Z,97004.66
2022-08-17T11:12:44.212Z,97000.94
2022-08-17T11:15:32.379Z,96998.16
2022-08-17T11:18:01.526Z,97006.94
2022-08-17T11:20:41.455Z,96988.22
2022-08-17T11:23:32.694Z,96984.94
2022-08-17T11:26:09.431Z,96982.63
2022-08-17T11:28:48.696Z,96981.66
2022-08-17T11:31:40.190Z,96972.22
2022-08-17T11:34:26.516Z,96973.28
2022-08-17T11:36:53.309Z,96980.53
2022-08-17T11:39:39.739Z,96969.00
2022-08-17T11:42:34.440Z,96974.19
2022-08-17T11:45:38.610Z,96973.09
2022-08-17T11:48:44.555Z,96967.56
2022-08-17T11:51:40.593Z,96965.56
2022-08-17T11:54:33.450Z,96971.53
2022-08-17T11:57:21.612Z,96973.78
2022-08-17T11:59:48.376Z,96975.31
2022-08-17T12:05:14.356Z,96976.81
2022-08-17T12:08:07.505Z,96966.16
2022-08-17T12:10:58.898Z,96968.47
2022-08-17T12:13:30.608Z,96968.84
2022-08-17T12:16:05.818Z,96964.28
2022-08-17T12:18:37.418Z,96959.91
2022-08-17T12:21:28.690Z,96951.09
2022-08-17T12:24:15.619Z,96943.97
2022-08-17T12:26:44.239Z,96955.41
2022-08-17T12:29:38.932Z,96952.69
2022-08-17T12:32:13.143Z,96961.19
2022-08-17T12:34:43.439Z,96956.06
2022-08-17T12:37:24.982Z,96972.75
2022-08-17T12:40:24.780Z,96964.13
2022-08-17T12:43:18.674Z,96961.78
2022-08-17T12:45:54.019Z,96957.03
2022-08-17T12:48:26.302Z,96958.78
2022-08-17T12:51:00.948Z,96960.84
2022-08-17T12:53:35.252Z,96967.25
2022-08-17T12:56:07.906Z,96968.16
2022-08-17T12:58:45.735Z,96975.78
2022-08-17T13:01:18.594Z,96971.59
2022-08-17T13:03:52.818Z,96981.13
2022-08-17T13:07:00.075Z,96971.50
2022-08-17T13:09:35.257Z,96974.31
2022-08-17T13:12:05.089Z,96964.88
2022-08-17T13:14:33.373Z,96976.47
2022-08-17T13:17:02.587Z,96980.84
2022-08-17T13:19:40.360Z,96965.41
2022-08-17T13:22:12.463Z,96960.03
2022-08-17T13:24:53.234Z,96963.63
2022-08-17T13:27:23.901Z,96961.84
2022-08-17T13:29:54.170Z,96958.69
2022-08-17T13:32:32.851Z,96952.03
2022-08-17T13:35:11.931Z,96945.97
2022-08-17T13:37:43.402Z,96946.97
2022-08-17T13:40:12.731Z,96938.34
2022-08-17T13:42:51.822Z,96939.56
2022-08-17T13:45:35.637Z,96952.66
2022-08-17T13:48:07.396Z,96958.53
2022-08-17T13:50:36.228Z,96958.19
2022-08-17T13:53:15.022Z,96952.72
2022-08-17T13:55:48.958Z,96958.34
2022-08-17T13:58:21.975Z,96951.38
2022-08-17T14:00:50.754Z,96951.63
2022-08-17T14:03:18.182Z,96947.63
2022-08-17T14:05:46.138Z,96939.13
2022-08-17T14:08:15.722Z,96941.88
2022-08-17T14:10:43.733Z,96929.53
2022-08-17T14:13:10.873Z,96924.91
2022-08-17T14:15:56.124Z,96937.13
2022-08-17T14:18:31.135Z,96944.84
2022-08-17T14:21:10.761Z,96937.69
2022-08-17T14:23:37.711Z,96928.75
2022-08-17T14:26:04.954Z,96933.84
2022-08-17T14:28:32.085Z,96929.06
2022-08-17T14:31:00.447Z,96927.56
2022-08-17T14:33:28.710Z,96934.59
2022-08-17T14:35:56.069Z,96938.63
2022-08-17T14:38:22.862Z,96947.59
2022-08-17T14:40:49.863Z,96952.50
2022-08-17T14:43:17.992Z,96971.72
2022-08-17T14:45:48.002Z,96982.94
2022-08-17T14:48:14.834Z,96983.25
2022-08-17T14:50:43.565Z,96986.91
2022-08-17T14:53:13.705Z,96984.22
2022-08-17T14:55:43.063Z,96987.66
2022-08-17T14:58:10.457Z,96991.69
2022-08-17T15:00:43.792Z,97011.63
2022-08-17T15:03:11.867Z,97018.53
2022-08-17T15:05:39.320Z,97018.69
2022-08-17T15:08:24.126Z,97013.50
2022-08-17T15:10:54.282Z,97003.19
2022-08-17T15:13:27.757Z,96996.81
2022-08-17T15:15:54.859Z,96996.75
2022-08-17T15:18:21.789Z,96999.47
2022-08-17T15:20:50.183Z,97010.78
2022-08-17T15:23:20.778Z,97022.59
2022-08-17T15:25:53.675Z,97025.09
2022-08-17T15:28:23.294Z,97032.03
2022-08-17T15:30:51.357Z,97028.63
2022-08-17T15:33:33.570Z,97043.66
2022-08-17T15:36:03.705Z,97045.19
2022-08-17T15:38:34.068Z,97043.66
2022-08-17T15:41:35.733Z,97044.50
2022-08-17T15:44:03.000Z,97046.88
2022-08-17T15:46:29.707Z,97052.44
2022-08-17T15:49:05.761Z,97057.31
2022-08-17T15:51:35.684Z,97042.81
2022-08-17T15:54:17.258Z,97037.38
2022-08-17T15:56:48.018Z,97045.13
2022-08-17T15:59:14.723Z,97042.09
2022-08-17T16:03:14.041Z,97035.19
2022-08-17T16:04:30.867Z,97036.69
2022-08-17T16:06:59.728Z,97036.03
2022-08-17T16:09:26.588Z,97028.44
2022-08-17T16:11:55.445Z,97038.38
2022-08-17T16:14:24.077Z,97040.00
2022-08-17T16:16:54.306Z,97041.88
2022-08-17T16:19:21.044Z,97048.13
2022-08-17T16:21:47.791Z,97051.03
2022-08-17T16:24:14.875Z,97045.00
2022-08-17T16:26:42.824Z,97050.41
2022-08-17T16:29:10.781Z,97045.00
2022-08-17T16:31:41.990Z,97038.56
2022-08-17T16:34:17.482Z,97049.63
2022-08-17T16:36:55.168Z,97049.44
2022-08-17T16:39:28.420Z,97046.56
2022-08-17T16:41:56.700Z,97044.00
2022-08-17T16:44:23.554Z,97053.91
2022-08-17T16:46:50.655Z,97058.19
2022-08-17T16:49:35.146Z,97063.00
2022-08-17T16:52:03.962Z,97065.06
2022-08-17T16:54:30.699Z,97063.03
2022-08-17T16:56:57.406Z,97067.78
2022-08-17T16:59:31.180Z,97071.13
2022-08-17T17:05:31.277Z,97074.50
2022-08-17T17:08:04.143Z,97074.78
2022-08-17T17:10:49.448Z,97077.13
2022-08-17T17:13:25.187Z,97078.28
2022-08-17T17:16:06.660Z,97092.78
2022-08-17T17:19:05.035Z,97095.22
2022-08-17T17:22:01.632Z,97116.78
2022-08-17T17:24:39.916Z,97128.34
2022-08-17T17:27:20.325Z,97121.03
2022-08-17T17:30:07.777Z,97114.91
2022-08-17T17:33:00.759Z,97119.69
2022-08-17T17:35:53.891Z,97125.22
2022-08-17T17:38:29.212Z,97130.75
2022-08-17T17:41:07.612Z,97134.59
2022-08-17T17:43:39.687Z,97121.75
2022-08-17T17:46:28.554Z,97114.38
2022-08-17T17:49:00.552Z,97105.13
2022-08-17T17:52:08.001Z,97109.94
2022-08-17T17:55:04.460Z,97118.28
2022-08-17T17:57:37.185Z,97123.53
2022-08-17T18:00:15.605Z,97129.28
2022-08-17T18:02:54.153Z,97136.31
2022-08-17T18:05:47.673Z,97129.88
2022-08-17T18:08:32.090Z,97137.41
2022-08-17T18:11:24.136Z,97132.19
2022-08-17T18:14:02.490Z,97138.44
2022-08-17T18:16:32.886Z,97134.47
2022-08-17T18:19:00.770Z,97122.56
2022-08-17T18:21:40.155Z,97133.25
2022-08-17T18:24:10.783Z,97129.63
2022-08-17T18:26:50.619Z,97119.56
2022-08-17T18:29:31.976Z,97129.50
2022-08-17T18:32:16.915Z,97130.81
2022-08-17T18:34:49.518Z,97129.00
2022-08-17T18:37:45.592Z,97129.81
2022-08-17T18:40:20.748Z,97124.81
2022-08-17T18:43:14.200Z,97125.06
2022-08-17T18:45:53.558Z,97131.44
2022-08-17T18:48:33.890Z,97131.44
2022-08-17T18:51:40.366Z,97129.75
2022-08-17T18:54:23.752Z,97130.09
2022-08-17T18:56:50.476Z,97134.13
2022-08-17T18:59:28.854Z,97129.75
2022-08-17T19:02:45.085Z,97137.09
2022-08-17T19:05:13.556Z,97140.81
2022-08-17T19:07:46.735Z,97145.06
2022-08-17T19:10:46.121Z,97153.69
2022-08-17T19:13:24.299Z,97146.31
2022-08-17T19:16:15.745Z,97144.06
2022-08-17T19:18:52.654Z,97142.38
2022-08-17T19:21:25.639Z,97144.66
2022-08-17T19:24:22.631Z,97151.56
2022-08-17T19:26:58.942Z,97145.78
2022-08-17T19:29:37.501Z,97148.06
2022-08-17T19:32:07.073Z,97147.81
2022-08-17T19:34:36.984Z,97150.78
2022-08-17T19:37:12.685Z,97153.63
2022-08-17T19:39:50.483Z,97157.00
2022-08-17T19:42:55.562Z,97157.28
2022-08-17T19:45:56.241Z,97150.25
2022-08-17T19:48:40.946Z,97153.78
2022-08-17T19:51:17.766Z,97145.03
2022-08-17T19:54:16.140Z,97146.28
2022-08-17T19:57:20.294Z,97149.56
2022-08-17T20:00:13.621Z,97142.78
2022-08-17T20:03:07.533Z,97144.75
2022-08-17T20:06:01.414Z,97144.63
2022-08-17T20:08:39.406Z,97140.50
2022-08-17T20:11:31.486Z,97146.03
2022-08-17T20:14:14.946Z,97148.44
2022-08-17T20:16:41.858Z,97151.53
2022-08-17T20:19:19.850Z,97152.25
2022-08-17T20:21:54.056Z,97148.69
2022-08-17T20:24:25.785Z,97157.63
2022-08-17T20:26:59.972Z,97160.72
2022-08-17T20:29:51.728Z,97154.47
2022-08-17T20:32:28.750Z,97155.47
2022-08-17T20:35:41.890Z,97158.75
2022-08-17T20:38:36.235Z,97166.91
2022-08-17T20:41:03.968Z,97163.69
2022-08-17T20:43:33.652Z,97157.63
2022-08-17T20:46:10.358Z,97156.75
2022-08-17T20:48:42.790Z,97156.63
2022-08-17T20:51:33.366Z,97157.31
2022-08-17T20:54:07.548Z,97154.94
2022-08-17T20:56:43.578Z,97146.31
2022-08-17T20:59:25.999Z,97142.06
2022-08-17T21:02:18.743Z,97139.50
2022-08-17T21:04:53.039Z,97149.97
2022-08-17T21:07:41.189Z,97149.69
2022-08-17T21:10:10.520Z,97150.56
2022-08-17T21:13:08.200Z,97153.94
2022-08-17T21:16:08.975Z,97158.34
2022-08-17T21:18:52.875Z,97155.94
2022-08-17T21:21:41.250Z,97157.63
2022-08-17T21:24:28.200Z,97161.16
2022-08-17T21:27:05.445Z,97156.91
2022-08-17T21:29:38.421Z,97158.91
2022-08-17T21:32:09.511Z,97161.16
2022-08-17T21:34:43.753Z,97164.84
2022-08-17T21:37:23.541Z,97166.97
2022-08-17T21:40:19.106Z,97168.78
2022-08-17T21:42:49.517Z,97166.41
2022-08-17T21:45:29.069Z,97160.47
2022-08-17T21:48:11.609Z,97165.00
2022-08-17T21:50:41.683Z,97174.03
2022-08-17T21:53:22.011Z,97168.91
2022-08-17T21:55:50.331Z,97171.91
2022-08-17T21:58:33.418Z,97163.59
2022-08-17T22:01:28.693Z,97164.25
2022-08-17T22:03:58.804Z,97163.56
2022-08-17T22:06:35.972Z,97171.75
2022-08-17T22:09:25.776Z,97173.31
2022-08-17T22:12:04.728Z,97170.91
2022-08-17T22:14:53.095Z,97169.78
2022-08-17T22:17:28.661Z,97177.97
2022-08-17T22:20:01.996Z,97176.25
2022-08-17T22:22:34.508Z,97169.22
2022-08-17T22:25:05.793Z,97170.06
2022-08-17T22:27:54.707Z,97170.78
2022-08-17T22:30:27.565Z,97172.03
2022-08-17T22:32:55.514Z,97168.66
2022-08-17T22:35:42.270Z,97162.88
2022-08-17T22:38:21.170Z,97166.00
2022-08-17T22:40:50.947Z,97164.00
2022-08-17T22:43:25.873Z,97160.19
2022-08-17T22:45:57.510Z,97164.00
2022-08-17T22:48:27.562Z,97166.25
2022-08-17T22:51:12.578Z,97168.06
2022-08-17T22:54:08.658Z,97170.34
2022-08-17T22:56:54.745Z,97175.44
2022-08-17T23:00:00.679Z,97179.53
2022-08-17T23:02:34.422Z,97174.16
2022-08-17T23:05:10.255Z,97183.19
2022-08-17T23:07:37.149Z,97178.81
2022-08-17T23:10:06.591Z,97180.94
2022-08-17T23:12:39.005Z,97180.94
2022-08-17T23:15:14.442Z,97176.81
2022-08-17T23:17:42.183Z,97172.59
2022-08-17T23:20:14.160Z,97179.50
2022-08-17T23:22:52.577Z,97174.16
2022-08-17T23:25:27.891Z,97175.00
2022-08-17T23:27:55.324Z,97172.44
2022-08-17T23:30:25.445Z,97170.19
2022-08-17T23:32:54.318Z,97177.09
2022-08-17T23:35:39.917Z,97175.28
2022-08-17T23:38:09.380Z,97177.69
2022-08-17T23:40:36.503Z,97176.84
2022-08-17T23:43:09.807Z,97172.03
2022-08-17T23:45:44.353Z,97170.44
2022-08-17T23:48:11.080Z,97169.63
2022-08-17T23:50:38.429Z,97167.53
2022-08-17T23:53:06.663Z,97161.97
2022-08-17T23:55:34.719Z,97157.19
2022-08-17T23:58:02.866Z,97161.88
